Terminal Aerodrome Forecast
Issued by NWS

Home | Current Version | Previous Version | Graphics & Text | Print | Product List | Glossary On
Versions: 1 2 3 4 5 6 7 8 9 10 11
662
FTUS41 KCLE 221728
TAFFDY
TAF
KFDY 221728Z 2218/2318 04010G20KT P6SM SCT040 BKN150
     FM222200 05005KT P6SM OVC250=

USA.gov is the U.S. government's official web portal to all federal, state and local government web resources and services.